메인 페이지
METAR-TAF:

METAR-TAF

공항 :

에센보아 국제공항

앙카라 Esenboğa, 터키

위도: 40-07N, 경도: 032-59E, 고도: 953m

현재 날씨관측

예보는 24분 전, 21:50시(UTC)에 발표되었습니다.
여러 방향의 바람 2kt
온도 11°C
습도 66%
기압 1012 hPa
시정 10km 이상
고도 4000ft 상공 구름 보통

METAR: LTAC 282150Z VRB02KT 9999 SCT040 11/05 Q1012 NOSIG RMK RWY21L /////KT RWY03L 00000KT RWY21R 04005KT 340V070

시각: 01:14 (22:14 UTC)

예보

예보는 5 시간 34분 전, 16:40시(UTC)에 발표되었습니다.
예보 대상 시간: 28일 18시부터 29일 18시까지 (UTC)
여러 방향의 바람 2kt
시정 10km 이상
고도 4000ft 상공 구름 보통
일시적
28일 22시부터 29일 02시까지 (UTC)
고도 2500ft 상공 구름 조금, 적란운.
고도 3000ft 상공 구름 많음
고도 8000ft 상공 구름 많음
약한소나기
일시적
29일 02시부터 29일 06시까지 (UTC)
서북서15kt
시정: 4000m
고도 2500ft 상공 구름 조금, 적란운.
고도 3000ft 상공 구름 많음
고도 8000ft 상공 구름 많음
뇌우, 비
전환 중
29일 06시부터 29일 09시까지 (UTC)
서북서15kt
일시적
29일 06시부터 29일 10시까지 (UTC)
고도 3000ft 상공 구름 많음
고도 8000ft 상공 구름 많음
약한소나기
전환 중
29일 15시부터 29일 18시까지 (UTC)
여러 방향의 바람 2kt

TAF: LTAC 281640Z 2818/2918 VRB02KT 9999 SCT040 TEMPO 2822/2902 -SHRA FEW025CB BKN030 BKN080 TEMPO 2902/2906 30015KT 4000 TSRA FEW025CB BKN030 BKN080 BECMG 2906/2909 30015KT TEMPO 2906/2910 -SHRA BKN030 BKN080 BECMG 2915/2918 VRB02KT

4,000개 이상의 공항 관측 자료 및 예보 (METAR 및 TAF 보고).

지도상에서 검색 가능한 기상관측소가 노란 점과 빨간 점으로 표시되어 있습니다.

기상관측소 명을 보려면 표시 위로 마우스를 이동하세요.

날씨 관측과 예보를 보려면 클릭하세요.

지도 변경 : 확대하려면 엑스 표시가 있는 녹색 버튼, 축소하려면 빼기 표시가 있는 녹색 버튼, 다음 페이지의 지도를 보려면 녹색 화살표를 클릭하세요.


METAR-TAF: